Dewey, Illinois
Current Conditions -  °F | °C
As of 2:15 AM on Tuesday 27 Jan 2015 (Local Time) from KTIP Reporting Station
Haze Haze  
Wind Chill: 31°   Ceiling: 300
Heat Index: 31°   Visibility: 1mi
Dew Point: 31°   Wind: 0mph
Humidity: 98%   Direction: NA
Pressure: 29.91"   Gusts: NA
Location:  40.32°N, 88.28°W
Report Text: KTIP 270815Z AUTO 00000KT 1SM BR OVC003 00/M01 A2991 RMK AO2 T10031006
Loading
Personal Weather Stations






























Interactive Weather Map New forecast layout! Learn more

10-Day Weather Forecast

Advertisements
Track Severe Weather on mobile